Time;durP1;ratioP1;P1;durP2;ratioP2;P2;SDS_P1;SDS_P2;PMS_P1;PMS_P2;Temp;Humidity;BMP_temperature;BMP_pressure;BME280_temperature;BME280_humidity;BME280_pressure;Samples;Min_cycle;Max_cycle;Signal;HPM_P1;HPM_P2
2022/02/24 00:01:56;;;;;;;0.00;0.00;;;;;;;22.84;60.54;100393.44;5071931;28;20024;-59
2022/02/24 00:04:21;;;;;;;0.50;0.10;;;;;;;22.83;61.09;100391.75;5073424;28;20100;-59
2022/02/24 00:06:47;;;;;;;0.10;0.00;;;;;;;22.83;60.96;100401.88;5072931;28;20460;-59
2022/02/24 00:09:12;;;;;;;0.30;0.10;;;;;;;22.81;61.00;100396.56;5073365;28;20067;-59
2022/02/24 00:11:38;;;;;;;0.10;0.03;;;;;;;22.78;61.65;100383.31;5073004;28;20071;-59
2022/02/24 00:14:03;;;;;;;0.63;0.17;;;;;;;22.73;61.26;100388.59;5062042;28;20078;-59
2022/02/24 00:16:28;;;;;;;0.10;0.05;;;;;;;22.74;61.88;100385.63;5053017;28;20056;-60
2022/02/24 00:18:54;;;;;;;0.25;0.20;;;;;;;22.71;60.96;100374.25;5052662;28;20053;-59
2022/02/24 00:21:19;;;;;;;0.60;0.10;;;;;;;22.71;60.36;100379.72;5053007;28;20483;-59
2022/02/24 00:23:45;;;;;;;1.90;0.32;;;;;;;22.67;61.10;100372.97;5052745;28;20462;-60
2022/02/24 00:26:11;;;;;;;1.05;0.15;;;;;;;22.66;60.95;100372.13;5052961;28;20100;-59
2022/02/24 00:28:36;;;;;;;0.65;0.10;;;;;;;22.68;61.68;100380.16;5052742;28;20025;-59
2022/02/24 00:31:03;;;;;;;0.10;0.10;;;;;;;22.65;63.11;100369.59;5052625;28;20033;-60
2022/02/24 00:33:28;;;;;;;0.85;0.10;;;;;;;22.63;62.69;100377.19;5051455;28;20021;-59
2022/02/24 00:35:53;;;;;;;0.30;0.00;;;;;;;22.63;62.55;100371.69;5052307;28;20074;-59
2022/02/24 00:38:20;;;;;;;0.85;0.20;;;;;;;22.61;61.02;100363.69;5052893;28;20033;-59
2022/02/24 00:40:46;;;;;;;0.55;0.10;;;;;;;22.58;62.73;100357.81;5052518;28;20044;-59
2022/02/24 00:43:11;;;;;;;0.60;0.40;;;;;;;22.59;62.41;100370.44;5055722;28;20032;-59
2022/02/24 00:45:36;;;;;;;0.35;0.10;;;;;;;22.57;61.76;100356.13;5072552;28;20492;-59
2022/02/24 00:48:02;;;;;;;0.25;0.00;;;;;;;22.57;62.79;100359.69;5070998;28;20040;-59
2022/02/24 00:50:27;;;;;;;0.85;0.20;;;;;;;22.57;63.22;100356.13;5072506;28;20021;-59
2022/02/24 00:52:56;;;;;;;0.20;0.10;;;;;;;22.53;61.44;100355.72;5078370;22;20029;-59
2022/02/24 00:55:25;;;;;;;0.30;0.10;;;;;;;22.55;61.61;100352.75;5052098;28;20465;-59
2022/02/24 00:57:51;;;;;;;0.52;0.10;;;;;;;22.52;62.79;100349.38;5051984;28;20017;-59
2022/02/24 01:00:17;;;;;;;0.47;0.10;;;;;;;22.48;61.43;100342.63;5052332;28;20048;-59
2022/02/24 01:02:42;;;;;;;0.10;0.05;;;;;;;22.48;62.82;100348.09;5052207;28;20032;-59
2022/02/24 01:05:08;;;;;;;0.20;0.10;;;;;;;22.48;61.61;100336.31;5052219;28;20035;-60
2022/02/24 01:07:33;;;;;;;0.28;0.03;;;;;;;22.47;62.51;100340.94;5052352;28;20384;-59
2022/02/24 01:09:58;;;;;;;0.73;0.20;;;;;;;22.45;62.25;100326.63;5052054;28;20033;-59
2022/02/24 01:12:24;;;;;;;0.63;0.10;;;;;;;22.46;61.30;100328.28;5053545;28;20025;-59
2022/02/24 01:14:50;;;;;;;0.52;0.10;;;;;;;22.43;62.86;100317.78;5074992;28;20024;-59
2022/02/24 01:17:15;;;;;;;0.30;0.17;;;;;;;22.43;61.32;100315.03;5076355;28;20032;-59
2022/02/24 01:19:40;;;;;;;0.75;0.10;;;;;;;22.44;62.30;100316.72;5076331;28;20428;-59
2022/02/24 01:22:06;;;;;;;0.77;0.30;;;;;;;22.40;61.50;100304.50;5076026;28;20035;-58
2022/02/24 01:24:31;;;;;;;0.00;0.00;;;;;;;22.41;61.98;100297.13;5076580;28;20024;-59
2022/02/24 01:26:56;;;;;;;0.30;0.10;;;;;;;22.41;63.20;100289.75;5076096;28;20028;-59
2022/02/24 01:29:22;;;;;;;0.93;0.20;;;;;;;22.37;61.54;100296.72;5076198;28;20020;-59
2022/02/24 01:31:47;;;;;;;0.22;0.15;;;;;;;22.37;62.19;100284.91;5076000;28;20463;-59
2022/02/24 01:34:13;;;;;;;0.38;0.15;;;;;;;22.37;62.42;100274.81;5075877;28;20020;-59
2022/02/24 01:36:38;;;;;;;1.15;0.10;;;;;;;22.36;63.46;100264.91;5075982;28;20052;-59
2022/02/24 01:39:04;;;;;;;0.30;0.20;;;;;;;22.35;62.30;100252.28;5075901;28;20066;-60
2022/02/24 01:41:29;;;;;;;1.20;0.20;;;;;;;22.34;61.21;100253.31;5075978;28;20020;-59
2022/02/24 01:43:54;;;;;;;0.65;0.20;;;;;;;22.35;62.24;100248.69;5064485;28;20028;-59
2022/02/24 01:46:20;;;;;;;0.08;0.00;;;;;;;22.33;61.74;100240.66;5055841;28;20234;-60
2022/02/24 01:48:46;;;;;;;0.43;0.30;;;;;;;22.33;62.89;100256.25;5055649;28;20068;-59
2022/02/24 01:51:11;;;;;;;0.10;0.05;;;;;;;22.31;63.81;100241.94;5055690;28;20032;-59
2022/02/24 01:53:37;;;;;;;0.75;0.20;;;;;;;22.29;62.17;100244.88;5055494;28;20040;-60
2022/02/24 01:56:04;;;;;;;1.50;0.20;;;;;;;22.28;61.97;100262.38;5055178;28;20021;-58
2022/02/24 01:58:30;;;;;;;0.17;0.10;;;;;;;22.29;62.14;100260.47;5055615;28;20028;-59
2022/02/24 02:00:55;;;;;;;0.45;0.10;;;;;;;22.29;61.95;100233.94;5055297;28;20029;-59
2022/02/24 02:03:20;;;;;;;0.47;0.10;;;;;;;22.29;62.37;100227.63;5055460;28;20473;-58
2022/02/24 02:05:47;;;;;;;0.50;0.08;;;;;;;22.28;62.86;100243.19;5055334;28;20029;-60
2022/02/24 02:08:13;;;;;;;0.38;0.00;;;;;;;22.26;62.85;100250.78;5055217;28;20031;-59
2022/02/24 02:10:38;;;;;;;0.80;0.00;;;;;;;22.26;61.83;100250.78;5054134;28;20024;-58
2022/02/24 02:13:04;;;;;;;0.10;0.10;;;;;;;22.25;62.43;100235.41;5054986;28;20112;-60
2022/02/24 02:15:29;;;;;;;0.10;0.00;;;;;;;22.26;63.95;100212.44;5054676;28;20031;-59
2022/02/24 02:17:55;;;;;;;1.05;0.32;;;;;;;22.26;62.17;100217.09;5052961;28;20032;-59
2022/02/24 02:20:21;;;;;;;0.88;0.10;;;;;;;22.24;62.56;100231.00;5054933;28;20024;-59
2022/02/24 02:22:49;;;;;;;0.10;0.10;;;;;;;22.25;62.32;100199.81;5055092;28;20032;-58
2022/02/24 02:25:19;;;;;;;1.23;0.40;;;;;;;22.25;63.47;100202.56;5054014;28;20402;-59
2022/02/24 02:27:45;;;;;;;0.30;0.00;;;;;;;22.18;63.69;100196.25;5054884;28;20021;-59
2022/02/24 02:30:11;;;;;;;0.52;0.10;;;;;;;22.19;62.52;100200.69;5054401;28;20035;-58
2022/02/24 02:32:36;;;;;;;0.45;0.10;;;;;;;22.20;61.67;100184.03;5055039;28;20112;-59
2022/02/24 02:35:02;;;;;;;0.63;0.28;;;;;;;22.22;62.70;100175.63;5053477;28;20029;-59
2022/02/24 02:37:27;;;;;;;0.40;0.10;;;;;;;22.22;62.47;100156.44;5053520;28;20079;-59
2022/02/24 02:39:53;;;;;;;0.10;0.00;;;;;;;22.17;63.27;100148.00;5054562;28;20048;-60
2022/02/24 02:42:18;;;;;;;0.28;0.00;;;;;;;22.13;62.91;100168.66;5054604;28;20071;-59
2022/02/24 02:44:43;;;;;;;0.45;0.10;;;;;;;22.17;62.53;100159.84;5054569;28;20037;-59
2022/02/24 02:47:08;;;;;;;0.40;0.10;;;;;;;22.15;62.28;100137.28;5054418;28;20025;-59
2022/02/24 02:49:34;;;;;;;0.95;0.05;;;;;;;22.15;63.27;100136.44;5053397;28;20127;-59
2022/02/24 02:52:00;;;;;;;0.30;0.10;;;;;;;22.15;62.96;100122.75;5054240;28;20484;-59
2022/02/24 02:54:25;;;;;;;1.42;0.10;;;;;;;22.15;62.39;100128.22;5054366;28;20045;-59
2022/02/24 02:56:51;;;;;;;0.28;0.10;;;;;;;22.15;62.73;100111.78;5054245;28;20052;-59
2022/02/24 02:59:17;;;;;;;0.70;0.20;;;;;;;22.14;62.36;100110.13;5054402;28;20400;-58
2022/02/24 03:01:52;;;;;;;0.85;0.40;;;;;;;22.11;62.55;100094.97;5054357;28;20092;-59
2022/02/24 03:04:18;;;;;;;1.20;0.10;;;;;;;22.13;62.94;100086.53;5054266;28;20032;-58
2022/02/24 03:06:43;;;;;;;0.20;0.10;;;;;;;22.07;62.50;100081.94;5054250;28;20020;-60
2022/02/24 03:09:09;;;;;;;0.47;0.10;;;;;;;22.04;62.10;100101.50;5054236;28;20025;-59
2022/02/24 03:11:34;;;;;;;0.40;0.10;;;;;;;22.10;62.54;100086.97;5054303;28;20039;-59
2022/02/24 03:14:00;;;;;;;0.60;0.20;;;;;;;22.06;63.00;100094.78;5053378;28;20020;-59
2022/02/24 03:16:25;;;;;;;0.35;0.10;;;;;;;22.05;62.57;100078.56;5054217;28;20025;-59
2022/02/24 03:18:50;;;;;;;0.85;0.10;;;;;;;22.07;62.66;100060.03;5052700;28;20052;-59
2022/02/24 03:21:16;;;;;;;0.00;0.00;;;;;;;22.10;63.80;100059.59;5054076;28;20017;-60
2022/02/24 03:23:41;;;;;;;0.17;0.10;;;;;;;22.09;63.42;100053.28;5053994;28;20024;-60
2022/02/24 03:26:06;;;;;;;0.40;0.30;;;;;;;22.08;63.17;100031.59;5052426;28;20349;-58
2022/02/24 03:28:32;;;;;;;1.05;0.38;;;;;;;22.06;62.95;100031.00;5053992;28;20035;-59
2022/02/24 03:30:57;;;;;;;1.00;0.32;;;;;;;22.07;61.85;100035.41;5053618;28;20025;-59
2022/02/24 03:33:22;;;;;;;0.43;0.10;;;;;;;22.01;64.29;100038.97;5053901;28;20046;-59
2022/02/24 03:35:48;;;;;;;1.20;0.22;;;;;;;22.05;62.70;100032.03;5053403;28;20109;-60
2022/02/24 03:38:13;;;;;;;0.10;0.05;;;;;;;21.99;63.00;100014.53;5053496;28;20411;-59
2022/02/24 03:40:38;;;;;;;0.10;0.10;;;;;;;21.93;63.65;100016.25;5053733;28;20021;-59
2022/02/24 03:43:04;;;;;;;1.52;0.17;;;;;;;21.97;63.52;99993.91;5053255;28;20429;-59
2022/02/24 03:45:29;;;;;;;0.15;0.05;;;;;;;21.98;62.44;100001.06;5053674;28;20033;-59
2022/02/24 03:47:54;;;;;;;1.42;0.17;;;;;;;22.05;63.42;100018.34;5052991;28;20032;-59
2022/02/24 03:50:21;;;;;;;0.30;0.10;;;;;;;22.03;61.90;100009.50;5053504;28;20028;-59
2022/02/24 03:52:46;;;;;;;0.17;0.10;;;;;;;22.04;63.10;99994.75;5053201;28;20396;-59
2022/02/24 03:55:12;;;;;;;0.25;0.00;;;;;;;22.04;62.41;99978.34;5053318;28;20028;-59
2022/02/24 03:57:38;;;;;;;0.32;0.08;;;;;;;21.98;63.27;99981.91;5053308;28;20479;-59
2022/02/24 04:00:05;;;;;;;0.43;0.10;;;;;;;21.98;63.17;99973.69;5053234;28;20027;-59
2022/02/24 04:02:31;;;;;;;0.30;0.10;;;;;;;21.91;63.37;100001.94;5051938;28;20375;-59
2022/02/24 04:04:56;;;;;;;0.82;0.10;;;;;;;21.94;63.40;99989.72;5052930;28;20027;-59
2022/02/24 04:07:22;;;;;;;0.20;0.10;;;;;;;21.98;63.76;99996.44;5053183;28;20456;-59
2022/02/24 04:09:47;;;;;;;0.32;0.10;;;;;;;21.98;62.96;99985.50;5053184;28;20036;-60
2022/02/24 04:12:15;;;;;;;0.85;0.15;;;;;;;21.88;62.76;99950.38;5052469;28;20376;-59
2022/02/24 04:14:41;;;;;;;0.40;0.10;;;;;;;21.88;62.84;99942.19;5052744;28;20067;-59
2022/02/24 04:17:06;;;;;;;0.10;0.00;;;;;;;21.93;62.57;99956.03;5052660;28;20037;-59
2022/02/24 04:19:32;;;;;;;0.13;0.00;;;;;;;21.95;63.13;99963.19;5052483;28;20021;-59
2022/02/24 04:21:57;;;;;;;0.15;0.00;;;;;;;21.98;61.93;99968.22;5052638;28;20414;-58
2022/02/24 04:24:22;;;;;;;0.20;0.10;;;;;;;21.96;62.17;99992.25;5052914;28;20032;-59
2022/02/24 04:26:47;;;;;;;0.40;0.15;;;;;;;21.97;62.39;99969.28;5052701;28;20456;-59
2022/02/24 04:29:13;;;;;;;0.10;0.10;;;;;;;21.93;62.06;99980.66;5053051;28;20028;-58
2022/02/24 04:31:38;;;;;;;0.47;0.10;;;;;;;21.93;61.73;99955.19;5052754;28;20029;-59
2022/02/24 04:34:03;;;;;;;0.95;0.20;;;;;;;21.96;62.44;99997.72;5052336;28;20036;-59
2022/02/24 04:36:29;;;;;;;0.68;0.10;;;;;;;21.91;63.16;99988.25;5052717;28;20027;-59
2022/02/24 04:38:54;;;;;;;0.32;0.00;;;;;;;21.90;62.45;100019.41;5052373;28;20116;-59
2022/02/24 04:41:19;;;;;;;0.45;0.10;;;;;;;21.85;62.53;100000.06;5052607;28;20021;-59
2022/02/24 04:43:44;;;;;;;0.13;0.00;;;;;;;21.89;63.29;99971.22;5052195;28;20053;-59
2022/02/24 04:46:10;;;;;;;0.15;0.10;;;;;;;21.91;63.29;99973.75;5052237;28;20028;-59
2022/02/24 04:48:35;;;;;;;0.57;0.10;;;;;;;21.90;63.17;99966.59;5052030;28;20410;-59
2022/02/24 04:51:01;;;;;;;1.25;0.05;;;;;;;21.87;63.15;99967.88;5052260;28;20029;-59
2022/02/24 04:53:26;;;;;;;0.30;0.20;;;;;;;21.90;62.92;99950.16;5052319;28;20044;-59
2022/02/24 04:55:53;;;;;;;0.50;0.10;;;;;;;21.87;63.11;99956.06;5052043;28;20063;-59
2022/02/24 04:58:18;;;;;;;0.73;0.43;;;;;;;21.85;62.58;99950.81;5052707;28;20036;-59
2022/02/24 05:00:45;;;;;;;0.43;0.05;;;;;;;22.12;61.94;99943.34;5052258;28;20079;-59
2022/02/24 05:03:10;;;;;;;0.75;0.20;;;;;;;22.98;58.34;99953.81;5052596;28;20450;-59
2022/02/24 05:05:36;;;;;;;0.20;0.10;;;;;;;23.29;57.29;99960.28;5052296;28;20021;-60
2022/02/24 05:08:01;;;;;;;0.65;0.10;;;;;;;23.52;56.24;99946.78;5051945;28;20024;-59
2022/02/24 05:10:26;;;;;;;1.25;0.38;;;;;;;23.65;57.13;99941.19;5052314;28;20017;-59
2022/02/24 05:12:52;;;;;;;0.40;0.17;;;;;;;23.76;56.16;99939.59;5051632;28;20020;-60
2022/02/24 05:15:17;;;;;;;1.17;0.00;;;;;;;23.82;56.17;99943.31;5052274;28;20055;-59
2022/02/24 05:17:43;;;;;;;0.63;0.05;;;;;;;23.87;57.23;99940.75;5051992;28;20372;-58
2022/02/24 05:20:10;;;;;;;0.68;0.10;;;;;;;23.91;56.69;99928.22;5051974;28;20036;-60
2022/02/24 05:22:39;;;;;;;0.75;0.20;;;;;;;23.91;56.41;99930.97;5052093;28;20028;-59
2022/02/24 05:25:08;;;;;;;0.55;0.15;;;;;;;23.98;56.18;99934.47;5052009;28;20036;-58
2022/02/24 05:27:34;;;;;;;1.15;0.10;;;;;;;23.99;56.08;99919.66;5052068;28;20036;-59
2022/02/24 05:29:59;;;;;;;0.22;0.08;;;;;;;24.08;56.76;99914.72;5050695;28;20025;-59
2022/02/24 05:32:24;;;;;;;0.10;0.10;;;;;;;24.11;56.87;99914.25;5052144;28;20079;-58
2022/02/24 05:34:50;;;;;;;0.10;0.00;;;;;;;24.13;56.70;99917.59;5052137;28;20107;-60
2022/02/24 05:37:15;;;;;;;0.93;0.20;;;;;;;24.19;56.40;99922.19;5051930;28;20385;-59
2022/02/24 05:39:41;;;;;;;0.25;0.10;;;;;;;24.19;56.18;99914.78;5051916;28;20045;-59
2022/02/24 05:42:06;;;;;;;0.38;0.10;;;;;;;24.16;56.48;99906.97;5051489;28;20020;-59
2022/02/24 05:44:32;;;;;;;0.10;0.00;;;;;;;24.22;55.79;99917.06;5051952;28;20052;-58
2022/02/24 05:46:57;;;;;;;1.65;0.10;;;;;;;24.23;56.10;99902.25;5051770;28;20044;-60
2022/02/24 05:49:23;;;;;;;0.08;0.00;;;;;;;24.23;55.66;99915.97;5051997;28;20119;-59
2022/02/24 05:51:48;;;;;;;1.17;0.00;;;;;;;24.24;56.29;99898.44;5051734;28;20064;-58
2022/02/24 05:54:13;;;;;;;0.68;0.00;;;;;;;24.29;55.69;99890.34;5051692;28;20041;-59
2022/02/24 05:56:39;;;;;;;0.35;0.00;;;;;;;24.30;55.64;99889.28;5052078;28;20021;-58
2022/02/24 05:59:05;;;;;;;0.10;0.00;;;;;;;24.25;55.75;99883.63;5053921;28;20418;-59
2022/02/24 06:01:30;;;;;;;0.30;0.13;;;;;;;24.34;55.73;99886.06;5055617;28;20476;-59
2022/02/24 06:03:55;;;;;;;0.85;0.05;;;;;;;24.32;55.55;99869.81;5055270;28;20420;-58
2022/02/24 06:06:21;;;;;;;0.80;0.10;;;;;;;24.34;55.36;99869.59;5055745;28;20021;-58
2022/02/24 06:08:46;;;;;;;0.10;0.10;;;;;;;24.39;55.83;99864.25;5055686;28;20357;-59
2022/02/24 06:11:12;;;;;;;1.13;0.10;;;;;;;24.33;55.59;99878.91;5055337;28;20033;-59
2022/02/24 06:13:37;;;;;;;0.20;0.08;;;;;;;24.37;54.80;99885.63;5055137;28;20035;-59
2022/02/24 06:16:03;;;;;;;0.52;0.08;;;;;;;24.40;54.79;99885.16;5054908;28;20029;-59
2022/02/24 06:18:28;;;;;;;0.65;0.00;;;;;;;24.39;55.67;99869.75;5055337;28;20070;-59
2022/02/24 06:20:54;;;;;;;0.25;0.10;;;;;;;24.38;55.22;99855.16;5054900;28;20483;-60
2022/02/24 06:23:19;;;;;;;0.65;0.10;;;;;;;24.41;55.43;99853.84;5055245;28;20503;-60
2022/02/24 06:25:45;;;;;;;0.40;0.00;;;;;;;24.43;55.21;99852.53;5054822;28;20067;-58
2022/02/24 06:28:11;;;;;;;0.28;0.00;;;;;;;24.46;55.27;99862.22;5055189;28;20021;-60
2022/02/24 06:30:36;;;;;;;0.10;0.00;;;;;;;24.38;55.35;99844.19;5055067;28;20029;-60
2022/02/24 06:33:02;;;;;;;0.55;0.03;;;;;;;24.43;55.23;99849.78;5054827;28;20422;-58
2022/02/24 06:35:28;;;;;;;0.35;0.10;;;;;;;24.40;54.61;99841.19;5055040;28;20021;-60
2022/02/24 06:37:53;;;;;;;0.45;0.00;;;;;;;24.43;54.95;99838.81;5054578;28;20483;-59
2022/02/24 06:40:18;;;;;;;0.63;0.38;;;;;;;24.51;54.50;99859.59;5054890;28;20032;-59
2022/02/24 06:42:43;;;;;;;0.10;0.08;;;;;;;24.48;55.31;99865.56;5054415;28;20041;-60
2022/02/24 06:45:09;;;;;;;0.20;0.10;;;;;;;24.45;55.03;99846.81;5054668;28;20040;-59
2022/02/24 06:47:35;;;;;;;0.52;0.10;;;;;;;24.50;55.17;99847.78;5054790;28;20056;-59
2022/02/24 06:50:01;;;;;;;0.15;0.10;;;;;;;24.53;55.43;99857.47;5054371;28;20338;-59
2022/02/24 06:52:27;;;;;;;0.63;0.10;;;;;;;24.46;55.27;99867.72;5054707;28;20447;-59
2022/02/24 06:54:52;;;;;;;0.00;0.00;;;;;;;24.53;54.74;99857.47;5054238;28;20555;-59
2022/02/24 06:57:17;;;;;;;3.33;0.10;;;;;;;24.52;55.57;99872.25;5054459;28;20035;-59
2022/02/24 06:59:44;;;;;;;0.05;0.05;;;;;;;24.53;54.52;99857.47;5054455;28;20112;-59
2022/02/24 07:02:09;;;;;;;0.50;0.17;;;;;;;24.54;54.95;99849.00;5054192;28;20468;-59
2022/02/24 07:04:35;;;;;;;1.27;0.00;;;;;;;24.54;54.54;99894.88;5054440;28;20032;-59
2022/02/24 07:07:01;;;;;;;0.70;0.32;;;;;;;24.50;54.14;99879.91;5054148;28;20028;-58
2022/02/24 07:09:27;;;;;;;0.47;0.20;;;;;;;24.54;55.11;99875.63;5054063;28;20033;-59
2022/02/24 07:11:52;;;;;;;0.28;0.10;;;;;;;24.53;55.48;99882.22;5053536;28;20036;-59
2022/02/24 07:14:18;;;;;;;0.08;0.05;;;;;;;24.55;55.09;99871.81;5054041;28;20033;-59
2022/02/24 07:16:43;;;;;;;0.63;0.10;;;;;;;24.54;54.80;99864.66;5054071;28;20411;-59
2022/02/24 07:19:09;;;;;;;0.20;0.10;;;;;;;24.53;54.87;99868.47;5054126;28;20060;-59
2022/02/24 07:21:34;;;;;;;0.15;0.00;;;;;;;24.58;54.96;99871.34;5054157;28;20021;-58
2022/02/24 07:23:59;;;;;;;0.68;0.10;;;;;;;24.58;54.87;99888.66;5053715;28;20036;-59
2022/02/24 07:26:25;;;;;;;0.57;0.10;;;;;;;24.58;55.03;99898.81;5054040;28;20108;-59
2022/02/24 07:28:50;;;;;;;0.17;0.10;;;;;;;24.60;54.79;99880.19;5053799;28;20075;-58
2022/02/24 07:31:15;;;;;;;0.43;0.10;;;;;;;24.57;54.78;99872.41;5053944;28;20056;-59
2022/02/24 07:33:41;;;;;;;0.03;0.00;;;;;;;24.62;54.94;99853.31;5054167;28;20025;-59
2022/02/24 07:36:07;;;;;;;0.57;0.20;;;;;;;24.62;55.33;99861.53;5053791;28;20066;-60
2022/02/24 07:38:32;;;;;;;0.75;0.20;;;;;;;24.59;55.19;99881.25;5053823;28;20064;-59
2022/02/24 07:40:58;;;;;;;1.08;0.05;;;;;;;24.62;54.95;99894.53;5053512;28;20029;-59
2022/02/24 07:43:23;;;;;;;0.80;0.17;;;;;;;24.59;55.32;99912.31;5053323;28;20076;-60
2022/02/24 07:45:48;;;;;;;0.20;0.03;;;;;;;24.58;55.08;99918.06;5053447;28;20029;-59
2022/02/24 07:48:13;;;;;;;0.10;0.00;;;;;;;24.60;55.25;99899.41;5053385;28;20028;-58
2022/02/24 07:50:39;;;;;;;0.55;0.10;;;;;;;24.60;54.65;99888.41;5053580;28;20046;-60
2022/02/24 07:53:04;;;;;;;1.23;0.68;;;;;;;24.57;55.63;99881.50;5053339;28;20053;-59
2022/02/24 07:55:29;;;;;;;0.10;0.10;;;;;;;24.62;55.20;99879.94;5052237;28;20025;-58
2022/02/24 07:57:55;;;;;;;0.10;0.10;;;;;;;24.64;54.96;99883.28;5051632;28;20416;-60
2022/02/24 08:00:20;;;;;;;1.08;0.30;;;;;;;24.54;54.96;99872.88;5053348;28;20119;-59
2022/02/24 08:02:51;;;;;;;0.32;0.20;;;;;;;24.58;54.91;99865.84;5053136;28;20120;-59
2022/02/24 08:05:16;;;;;;;0.30;0.00;;;;;;;24.55;55.37;99888.31;5053307;28;20025;-59
2022/02/24 08:07:42;;;;;;;0.30;0.00;;;;;;;24.68;55.02;99895.47;5053140;28;20063;-60
2022/02/24 08:10:08;;;;;;;0.20;0.08;;;;;;;24.66;54.50;99890.22;5052957;28;20082;-59
2022/02/24 08:12:39;;;;;;;0.10;0.10;;;;;;;24.50;55.70;99879.91;5052952;28;20037;-59
2022/02/24 08:15:15;;;;;;;0.13;0.00;;;;;;;24.52;55.69;99900.59;5052868;28;20379;-58
2022/02/24 08:17:41;;;;;;;0.10;0.08;;;;;;;24.61;55.35;99925.81;5052631;28;20029;-59
2022/02/24 08:20:08;;;;;;;1.70;0.10;;;;;;;24.58;55.16;99926.28;5052315;28;20065;-59
2022/02/24 08:22:43;;;;;;;0.63;0.30;;;;;;;24.49;55.74;99911.19;5050759;28;20495;-59
2022/02/24 08:25:12;;;;;;;0.30;0.10;;;;;;;24.55;54.60;99908.38;5052516;28;20025;-60
2022/02/24 08:27:39;;;;;;;2.92;0.10;;;;;;;24.63;54.87;99896.19;5052678;28;20103;-58
2022/02/24 08:30:07;;;;;;;0.70;0.10;;;;;;;24.61;55.20;99925.81;5052363;28;20024;-59
2022/02/24 08:32:32;;;;;;;0.90;0.20;;;;;;;24.53;55.39;99906.94;5052688;28;20067;-59
2022/02/24 08:34:58;;;;;;;2.13;0.10;;;;;;;24.51;55.58;99925.53;5052507;28;20415;-59
2022/02/24 08:37:27;;;;;;;3.13;0.30;;;;;;;24.60;55.09;99915.91;5051325;28;20017;-59
2022/02/24 08:39:53;;;;;;;0.65;0.03;;;;;;;24.66;55.29;99905.88;5052361;28;20033;-59
2022/02/24 08:42:21;;;;;;;0.70;0.20;;;;;;;24.64;55.05;99903.34;5052316;28;20430;-58
2022/02/24 08:44:46;;;;;;;0.57;0.20;;;;;;;24.62;55.00;99902.75;5052447;28;20025;-59
2022/02/24 08:47:12;;;;;;;0.35;0.10;;;;;;;24.62;54.63;99916.50;5052522;28;20456;-59
2022/02/24 08:49:37;;;;;;;0.30;0.20;;;;;;;24.54;54.41;99930.59;5052579;28;20037;-59
2022/02/24 08:52:04;;;;;;;1.77;0.25;;;;;;;24.52;54.21;99924.47;5052104;28;20513;-59
2022/02/24 08:54:29;;;;;;;0.45;0.22;;;;;;;24.73;56.50;99921.19;5052161;28;20474;-59
2022/02/24 08:56:55;;;;;;;0.52;0.43;;;;;;;24.78;57.42;99899.34;5052199;28;20041;-58
2022/02/24 08:59:20;;;;;;;0.40;0.20;;;;;;;24.64;56.91;99903.34;5051137;28;20121;-59
2022/02/24 09:01:45;;;;;;;0.50;0.40;;;;;;;24.72;55.66;99922.28;5052221;28;20032;-59
2022/02/24 09:04:10;;;;;;;0.28;0.20;;;;;;;24.71;55.48;99928.00;5052154;28;20379;-58
2022/02/24 09:06:36;;;;;;;0.20;0.20;;;;;;;24.69;54.67;99939.25;5052363;28;20023;-59
2022/02/24 09:09:01;;;;;;;0.57;0.30;;;;;;;24.61;55.70;99925.81;5052125;28;20482;-59
2022/02/24 09:11:27;;;;;;;2.30;0.47;;;;;;;24.67;55.25;99919.38;5052152;28;20062;-59
2022/02/24 09:13:52;;;;;;;0.88;0.20;;;;;;;24.63;55.06;99920.91;5051943;28;20059;-59
2022/02/24 09:16:17;;;;;;;0.10;0.10;;;;;;;24.59;55.53;99923.31;5052098;28;20029;-59
2022/02/24 09:18:43;;;;;;;0.55;0.30;;;;;;;24.63;55.14;99911.84;5052079;28;20346;-59
2022/02/24 09:21:08;;;;;;;0.30;0.20;;;;;;;24.68;54.79;99926.53;5052127;28;20457;-60
2022/02/24 09:23:34;;;;;;;1.35;0.20;;;;;;;24.70;53.86;99924.44;5052202;28;20032;-58
2022/02/24 09:26:00;;;;;;;0.80;0.22;;;;;;;24.67;55.15;99930.38;5051774;28;20029;-59
2022/02/24 09:28:25;;;;;;;0.73;0.10;;;;;;;24.73;54.59;99940.44;5052143;28;20460;-59
2022/02/24 09:30:51;;;;;;;1.27;0.40;;;;;;;24.71;55.03;99952.75;5051234;28;20052;-59
2022/02/24 09:33:16;;;;;;;0.55;0.28;;;;;;;24.72;55.70;99952.50;5053091;28;20047;-60
2022/02/24 09:35:42;;;;;;;0.85;0.15;;;;;;;24.70;54.59;99942.81;5056066;28;20033;-59
2022/02/24 09:38:07;;;;;;;0.17;0.10;;;;;;;24.75;55.14;99946.53;5055687;28;20024;-58
2022/02/24 09:40:33;;;;;;;0.68;0.10;;;;;;;24.62;55.29;99943.13;5055878;28;20452;-59
2022/02/24 09:42:59;;;;;;;0.43;0.20;;;;;;;24.55;55.19;99911.13;5055427;28;20044;-60
2022/02/24 09:45:24;;;;;;;0.45;0.10;;;;;;;24.68;55.15;99940.28;5055985;28;20021;-59
2022/02/24 09:47:51;;;;;;;0.17;0.15;;;;;;;24.72;55.11;99938.75;5055709;28;20548;-59
2022/02/24 09:50:16;;;;;;;0.40;0.20;;;;;;;24.69;54.63;99944.72;5055697;28;20033;-59
2022/02/24 09:52:42;;;;;;;0.10;0.10;;;;;;;24.66;54.87;99942.44;5055731;28;20048;-60
2022/02/24 09:55:10;;;;;;;0.40;0.10;;;;;;;24.69;55.29;99931.00;5055456;28;20060;-59
2022/02/24 09:57:35;;;;;;;0.10;0.03;;;;;;;24.68;54.88;99932.03;5055687;28;20024;-60
2022/02/24 10:00:01;;;;;;;0.20;0.10;;;;;;;24.72;55.26;99930.53;5055267;28;20116;-59
2022/02/24 10:02:28;;;;;;;0.65;0.10;;;;;;;24.74;55.17;99925.63;5055698;28;20108;-59
2022/02/24 10:05:03;;;;;;;0.95;0.10;;;;;;;24.66;55.13;99917.69;5055313;28;20037;-59
2022/02/24 10:07:28;;;;;;;1.70;0.20;;;;;;;24.59;54.78;99933.47;5055617;28;20029;-60
2022/02/24 10:09:54;;;;;;;0.20;0.10;;;;;;;24.67;55.48;99919.38;5055198;28;20074;-59
2022/02/24 10:12:19;;;;;;;0.30;0.10;;;;;;;24.75;55.11;99916.31;5054944;28;20035;-59
2022/02/24 10:14:44;;;;;;;0.93;0.22;;;;;;;24.68;54.24;99926.53;5055214;28;20061;-59
2022/02/24 10:17:10;;;;;;;0.20;0.10;;;;;;;24.72;54.50;99919.53;5053898;28;20035;-59
2022/02/24 10:19:40;;;;;;;0.40;0.10;;;;;;;24.70;54.60;99910.69;5055322;28;20047;-59
2022/02/24 10:22:06;;;;;;;1.48;0.38;;;;;;;24.77;56.10;99925.13;5055206;28;20048;-60
2022/02/24 10:24:32;;;;;;;0.30;0.22;;;;;;;24.72;54.96;99926.94;5053954;28;20125;-59
2022/02/24 10:27:20;;;;;;;0.68;0.35;;;;;;;24.74;55.30;99942.09;5054733;28;20025;-59
2022/02/24 10:29:51;;;;;;;0.90;0.28;;;;;;;24.73;55.19;99928.59;5055033;28;20105;-60
2022/02/24 10:32:37;;;;;;;0.10;0.10;;;;;;;24.73;54.60;99929.44;5053942;28;20078;-59
2022/02/24 10:35:22;;;;;;;0.22;0.20;;;;;;;24.75;54.59;99926.47;5054880;28;20043;-59
2022/02/24 10:37:58;;;;;;;0.10;0.10;;;;;;;24.77;55.00;99927.06;5054737;28;20029;-59
2022/02/24 10:40:25;;;;;;;0.75;0.10;;;;;;;24.74;55.36;99931.13;5054674;28;20029;-60
2022/02/24 10:42:50;;;;;;;0.30;0.10;;;;;;;24.74;54.98;99922.88;5054398;28;20243;-60
2022/02/24 10:45:18;;;;;;;1.27;0.20;;;;;;;24.67;54.74;99935.84;5053943;28;20120;-59
2022/02/24 10:48:01;;;;;;;0.40;0.10;;;;;;;24.68;55.32;99932.03;5054894;28;20028;-60
2022/02/24 10:50:45;;;;;;;0.47;0.08;;;;;;;24.69;54.73;99932.88;5054664;28;20037;-59
2022/02/24 10:53:10;;;;;;;0.05;0.00;;;;;;;24.72;55.18;99935.19;5054407;28;20061;-60
2022/02/24 10:55:55;;;;;;;0.32;0.28;;;;;;;24.76;54.55;99934.47;5054553;28;20587;-61
2022/02/24 10:58:22;;;;;;;0.28;0.13;;;;;;;24.75;54.77;99937.44;5054561;28;20060;-59
2022/02/24 11:00:47;;;;;;;0.10;0.00;;;;;;;24.72;55.17;99940.69;5053043;28;20021;-59
2022/02/24 11:03:13;;;;;;;0.35;0.00;;;;;;;24.74;55.03;99935.78;5054705;28;20067;-59
2022/02/24 11:05:40;;;;;;;0.82;0.10;;;;;;;24.74;55.02;99936.63;5054422;28;20025;-59
2022/02/24 11:08:08;;;;;;;0.45;0.10;;;;;;;24.77;54.98;99941.63;5054401;28;20293;-59
2022/02/24 11:10:35;;;;;;;0.13;0.00;;;;;;;24.73;55.16;99948.69;5054195;28;20091;-59
2022/02/24 11:13:00;;;;;;;0.35;0.13;;;;;;;24.77;54.90;99941.63;5054129;28;20062;-60
2022/02/24 11:15:26;;;;;;;0.10;0.00;;;;;;;24.80;54.87;99940.31;5054344;28;20079;-59
2022/02/24 11:17:52;;;;;;;1.77;0.10;;;;;;;24.70;54.94;99934.56;5053921;28;20433;-58
2022/02/24 11:20:20;;;;;;;0.50;0.10;;;;;;;24.79;54.68;99934.00;5054412;28;20310;-59
2022/02/24 11:22:46;;;;;;;0.60;0.10;;;;;;;24.77;55.23;99941.63;5053993;28;20063;-60
2022/02/24 11:25:14;;;;;;;0.20;0.10;;;;;;;24.64;55.59;99930.84;5054019;28;20070;-59
2022/02/24 11:27:44;;;;;;;0.60;0.10;;;;;;;24.73;55.03;99921.19;5054021;28;20514;-60